Time;durP1;ratioP1;P1;durP2;ratioP2;P2;SDS_P1;SDS_P2;PMS_P1;PMS_P2;Temp;Humidity;BMP_temperature;BMP_pressure;BME280_temperature;BME280_humidity;BME280_pressure;Samples;Min_cycle;Max_cycle;Signal;HPM_P1;HPM_P2
2021/08/08 15:10:56;;;;;;;2.55;0.90;;;;;;;21.03;69.42;100126.56;4841051;29;20054;-79
2021/08/08 15:13:21;;;;;;;8.45;1.15;;;;;;;21.22;69.34;100152.13;4839839;29;20038;-79
2021/08/08 15:15:47;;;;;;;2.55;0.88;;;;;;;21.57;69.07;100207.72;4842414;29;20054;-80
2021/08/08 15:18:12;;;;;;;2.50;0.80;;;;;;;22.00;69.03;100277.16;4840278;29;20059;-80
2021/08/08 15:20:38;;;;;;;4.05;0.90;;;;;;;21.56;69.00;100201.41;4837664;29;20038;-80
2021/08/08 15:23:03;;;;;;;2.33;0.85;;;;;;;21.50;68.59;100180.66;4840349;29;20103;-79
2021/08/08 15:25:32;;;;;;;5.88;0.82;;;;;;;21.15;68.58;100112.50;4844233;29;20063;-82
2021/08/08 15:27:58;;;;;;;2.53;0.90;;;;;;;22.22;68.95;100284.13;4845714;29;20023;-82
2021/08/08 15:30:24;;;;;;;3.88;0.90;;;;;;;22.13;68.66;100275.66;4845932;29;20117;-82
2021/08/08 15:32:50;;;;;;;2.38;0.70;;;;;;;21.55;69.26;100209.91;4848053;29;20019;-82
2021/08/08 15:35:17;;;;;;;3.55;0.82;;;;;;;20.80;69.98;100115.25;4846923;29;20022;-82
2021/08/08 15:37:44;;;;;;;2.67;0.90;;;;;;;21.60;70.37;100267.38;4847634;29;20097;-82
2021/08/08 15:40:10;;;;;;;3.38;0.80;;;;;;;21.57;70.55;100295.31;4846899;29;20030;-81
2021/08/08 15:42:37;;;;;;;4.10;1.00;;;;;;;20.22;70.32;100134.09;4843839;29;20058;-82
2021/08/08 15:45:09;;;;;;;3.10;0.90;;;;;;;19.87;71.28;100127.69;4847489;29;20113;-81
2021/08/08 15:47:38;;;;;;;3.80;0.85;;;;;;;20.96;71.46;100310.16;4847717;29;20031;-81
2021/08/08 15:50:04;;;;;;;3.15;0.90;;;;;;;20.86;71.54;100293.75;4851328;29;20040;-82
2021/08/08 15:52:30;;;;;;;3.35;0.88;;;;;;;20.79;72.26;100304.19;4860374;29;20018;-81
2021/08/08 15:54:56;;;;;;;1.77;0.80;;;;;;;19.99;72.75;100195.63;4847086;29;20026;-82
2021/08/08 15:57:22;;;;;;;3.70;0.88;;;;;;;19.63;72.87;100146.53;4862284;29;20056;-82
2021/08/08 15:59:48;;;;;;;2.67;0.95;;;;;;;19.71;72.70;100150.66;4833107;29;20042;-82
2021/08/08 16:02:13;;;;;;;5.45;0.88;;;;;;;19.59;73.13;100153.63;4863122;29;20079;-82
2021/08/08 16:04:40;;;;;;;2.03;1.00;;;;;;;20.05;73.45;100227.31;4841183;29;20035;-81
2021/08/08 16:07:06;;;;;;;2.97;1.13;;;;;;;19.94;73.63;100217.50;4848980;29;20070;-82
2021/08/08 16:09:32;;;;;;;3.45;0.90;;;;;;;20.69;73.94;100329.63;4837397;29;20063;-81
2021/08/08 16:11:58;;;;;;;2.45;0.90;;;;;;;20.65;74.01;100334.84;4835375;29;20023;-82
2021/08/08 16:14:25;;;;;;;4.20;1.02;;;;;;;19.95;74.04;100224.59;4851218;29;20034;-84
2021/08/08 16:16:50;;;;;;;4.20;1.10;;;;;;;19.77;73.72;100198.69;4835077;29;20025;-82
2021/08/08 16:19:22;;;;;;;5.22;1.20;;;;;;;19.56;73.84;100178.72;4832833;29;20043;-83
2021/08/08 16:21:48;;;;;;;3.88;0.90;;;;;;;20.57;74.25;100361.94;4841823;29;20041;-80
2021/08/08 16:24:15;;;;;;;3.45;1.02;;;;;;;20.49;74.43;100367.94;4846972;29;20006;-81
2021/08/08 16:26:41;;;;;;;2.97;1.50;;;;;;;20.03;75.04;100295.03;4840239;29;20045;-79
2021/08/08 16:29:07;;;;;;;4.55;1.20;;;;;;;19.21;75.01;100185.84;4842370;29;20042;-79
2021/08/08 16:31:34;;;;;;;4.43;1.25;;;;;;;20.36;75.43;100361.09;4827750;29;20030;-79
2021/08/08 16:34:00;;;;;;;8.60;5.93;;;;;;;20.34;75.64;100361.41;4844887;29;20041;-80
2021/08/08 16:36:27;;;;;;;9.30;7.13;;;;;;;20.28;75.18;100358.94;4845971;29;20030;-81
2021/08/08 16:38:52;;;;;;;4.97;1.45;;;;;;;20.10;74.83;100336.56;4822785;29;20035;-81
2021/08/08 16:41:17;;;;;;;3.83;1.50;;;;;;;20.22;74.50;100357.31;4840897;29;20086;-81
2021/08/08 16:43:43;;;;;;;4.43;1.02;;;;;;;20.18;74.37;100340.66;4839097;29;20045;-81
2021/08/08 16:46:08;;;;;;;2.60;0.90;;;;;;;20.19;73.57;100364.94;4832188;29;20041;-80
2021/08/08 16:48:33;;;;;;;2.03;0.90;;;;;;;20.10;73.43;100342.03;4844359;29;20034;-80
2021/08/08 16:50:59;;;;;;;2.17;0.63;;;;;;;20.27;72.80;100363.59;4833897;29;20022;-81
2021/08/08 16:53:24;;;;;;;1.40;0.70;;;;;;;20.31;72.51;100363.88;4848520;29;20101;-83
2021/08/08 16:55:50;;;;;;;1.23;0.50;;;;;;;20.33;72.88;100364.38;4849546;29;20041;-80
2021/08/08 16:58:15;;;;;;;2.00;0.90;;;;;;;20.44;73.40;100366.03;4833204;29;20026;-82
2021/08/08 17:00:40;;;;;;;3.80;1.13;;;;;;;20.53;73.60;100367.16;4844784;29;20038;-80
2021/08/08 17:03:08;;;;;;;3.63;1.45;;;;;;;20.56;73.98;100369.34;4839752;29;20465;-80
2021/08/08 17:05:34;;;;;;;4.25;1.27;;;;;;;20.69;73.89;100367.09;4848603;29;20034;-81
2021/08/08 17:07:59;;;;;;;3.05;1.20;;;;;;;20.76;74.01;100378.56;4845432;29;20133;-81
2021/08/08 17:10:27;;;;;;;4.88;1.30;;;;;;;20.70;74.26;100355.09;4844792;29;20074;-80
2021/08/08 17:12:53;;;;;;;5.25;1.67;;;;;;;20.72;74.51;100363.81;4827393;29;20031;-80
2021/08/08 17:15:21;;;;;;;4.93;1.17;;;;;;;20.63;74.83;100377.25;4843233;29;20075;-80
2021/08/08 17:17:48;;;;;;;4.20;1.50;;;;;;;20.34;75.14;100350.47;4824054;29;20065;-79
2021/08/08 17:20:13;;;;;;;4.00;1.20;;;;;;;20.29;75.45;100368.78;4837084;29;20082;-78
2021/08/08 17:22:38;;;;;;;4.80;1.20;;;;;;;20.16;76.03;100364.66;4845166;29;20057;-81
2021/08/08 17:25:08;;;;;;;3.72;1.20;;;;;;;20.05;76.39;100368.50;4854262;29;20026;-80
2021/08/08 17:27:33;;;;;;;5.65;1.40;;;;;;;20.03;77.19;100376.16;4835173;29;20070;-79
2021/08/08 17:29:59;;;;;;;3.45;1.27;;;;;;;19.84;77.36;100354.03;4829329;29;20030;-79
2021/08/08 17:32:24;;;;;;;4.30;1.48;;;;;;;19.55;77.76;100331.84;4832467;29;20117;-79
2021/08/08 17:34:51;;;;;;;6.70;1.67;;;;;;;19.73;78.15;100357.81;4827629;29;20058;-80
2021/08/08 17:37:26;;;;;;;5.30;1.30;;;;;;;19.63;78.26;100366.78;4835070;29;20039;-79
2021/08/08 17:39:52;;;;;;;6.35;1.58;;;;;;;19.62;78.87;100382.34;4833065;29;20087;-79
2021/08/08 17:42:17;;;;;;;4.43;1.40;;;;;;;19.50;79.59;100373.56;4849848;29;20106;-79
2021/08/08 17:44:45;;;;;;;5.60;1.60;;;;;;;19.41;80.33;100372.47;4855389;29;20030;-80
2021/08/08 17:47:12;;;;;;;3.03;1.63;;;;;;;19.27;80.49;100379.50;4831910;29;20042;-78
2021/08/08 17:49:38;;;;;;;6.22;1.73;;;;;;;19.14;80.77;100369.91;4828909;29;20041;-80
2021/08/08 17:52:05;;;;;;;6.50;1.50;;;;;;;19.13;80.84;100382.72;4853319;29;20042;-79
2021/08/08 17:54:31;;;;;;;3.63;1.55;;;;;;;19.10;80.92;100383.25;4847132;29;20079;-78
2021/08/08 17:56:57;;;;;;;5.05;1.60;;;;;;;18.98;80.87;100371.75;4836478;29;20041;-80
2021/08/08 17:59:23;;;;;;;3.50;1.63;;;;;;;19.02;81.57;100387.31;4845875;29;20030;-81
2021/08/08 18:01:49;;;;;;;5.18;2.00;;;;;;;18.94;82.99;100387.84;4845314;29;20041;-81
2021/08/08 18:04:14;;;;;;;7.45;2.75;;;;;;;18.84;84.29;100389.66;4844924;29;20042;-79
2021/08/08 18:06:44;;;;;;;3.63;2.05;;;;;;;18.75;85.07;100408.44;4826210;29;20057;-82
2021/08/08 18:09:10;;;;;;;5.43;2.33;;;;;;;18.62;85.98;100404.22;4859097;29;20062;-82
2021/08/08 18:11:36;;;;;;;6.10;2.20;;;;;;;18.58;86.68;100400.38;4851955;29;20099;-82
2021/08/08 18:14:02;;;;;;;7.60;2.45;;;;;;;18.11;87.01;100346.63;5123894;24;20055;-81
2021/08/08 18:16:27;;;;;;;4.63;2.28;;;;;;;17.81;87.43;100303.66;4830008;29;20015;-82
2021/08/08 18:18:53;;;;;;;6.47;2.10;;;;;;;17.41;87.97;100250.50;4833947;29;20031;-82
2021/08/08 18:21:19;;;;;;;5.63;2.50;;;;;;;17.68;88.13;100296.72;4863223;29;20074;-83
2021/08/08 18:23:45;;;;;;;7.03;2.10;;;;;;;17.32;88.43;100247.44;4862613;29;20045;-83
2021/08/08 18:26:11;;;;;;;7.13;2.30;;;;;;;17.93;88.70;100347.03;4829511;29;20023;-82
2021/08/08 18:28:36;;;;;;;6.30;2.20;;;;;;;17.36;88.99;100264.06;4828608;29;20015;-82
2021/08/08 18:31:02;;;;;;;6.03;2.17;;;;;;;17.27;88.95;100269.13;4844090;29;20063;-82
2021/08/08 18:33:28;;;;;;;4.88;2.00;;;;;;;17.17;89.34;100249.16;4828872;29;20036;-82
2021/08/08 18:35:54;;;;;;;5.95;1.88;;;;;;;17.18;89.49;100273.38;4829894;29;20134;-82
2021/08/08 18:38:19;;;;;;;5.82;1.70;;;;;;;17.21;89.54;100294.63;4863229;29;20034;-82
2021/08/08 18:40:45;;;;;;;4.35;1.70;;;;;;;17.61;89.68;100366.84;4849055;29;20040;-83
2021/08/08 18:45:46;;;;;;;4.50;1.70;;;;;;;18.03;89.14;100426.91;4906899;23;19909;-81
2021/08/08 18:48:12;;;;;;;3.97;1.50;;;;;;;17.73;89.03;100402.88;4859422;29;20044;-81
2021/08/08 18:50:37;;;;;;;3.90;1.30;;;;;;;17.13;88.88;100314.09;4865568;29;20081;-82
2021/08/08 18:53:04;;;;;;;2.92;1.33;;;;;;;17.51;89.32;100388.50;4865154;29;20022;-82
2021/08/08 18:58:05;;;;;;;6.95;1.67;;;;;;;17.13;89.43;100333.13;5606806;23;20048;-82
2021/08/08 19:00:30;;;;;;;5.68;1.50;;;;;;;16.69;89.29;100276.06;4851429;29;20045;-83
2021/08/08 19:02:56;;;;;;;5.18;1.50;;;;;;;17.26;89.81;100389.03;4853506;29;20028;-82
2021/08/08 19:05:21;;;;;;;4.63;1.50;;;;;;;16.94;90.12;100359.00;4849549;29;20022;-83
2021/08/08 19:07:48;;;;;;;5.25;1.92;;;;;;;16.78;90.27;100342.47;4852360;29;20039;-83
2021/08/08 19:10:15;;;;;;;4.22;1.70;;;;;;;17.40;90.48;100454.75;4848357;29;20011;-83
2021/08/08 19:12:50;;;;;;;4.15;1.80;;;;;;;16.45;90.89;100327.03;4849209;29;20010;-83
2021/08/08 19:15:20;;;;;;;4.88;1.75;;;;;;;16.61;91.31;100360.69;4848434;29;20045;-83
2021/08/08 19:20:22;;;;;;;4.78;1.90;;;;;;;16.73;92.15;100390.47;5164898;23;20046;-81
2021/08/08 19:22:48;;;;;;;6.60;2.00;;;;;;;17.12;92.27;100453.84;4862341;29;20021;-82
2021/08/08 19:25:15;;;;;;;3.55;1.88;;;;;;;17.11;92.63;100465.78;4858421;29;20026;-81
2021/08/08 19:27:41;;;;;;;4.05;2.10;;;;;;;16.01;92.42;100294.34;4858106;29;20010;-82
2021/08/08 19:30:08;;;;;;;4.88;2.15;;;;;;;16.48;92.58;100366.47;4866042;29;20018;-83
2021/08/08 19:32:36;;;;;;;6.10;2.25;;;;;;;16.49;92.87;100378.97;4864440;29;20040;-82
2021/08/08 19:35:02;;;;;;;6.15;2.38;;;;;;;17.02;93.21;100459.97;4852145;29;20030;-81
2021/08/08 19:37:30;;;;;;;6.82;2.30;;;;;;;16.58;93.02;100391.88;4860728;29;20014;-82
2021/08/08 19:39:57;;;;;;;4.97;2.15;;;;;;;16.17;93.44;100349.72;4861830;29;20026;-83
2021/08/08 19:42:23;;;;;;;4.90;2.30;;;;;;;16.95;93.55;100470.16;4873775;29;20035;-83
2021/08/08 19:44:49;;;;;;;8.48;2.75;;;;;;;16.36;93.71;100382.88;4863683;29;20030;-83
2021/08/08 19:47:15;;;;;;;6.72;2.80;;;;;;;16.33;93.87;100403.19;4863899;24;20041;-84
2021/08/08 19:49:41;;;;;;;8.73;2.75;;;;;;;16.03;94.26;100351.13;5123377;23;20254;-83
2021/08/08 19:52:07;;;;;;;8.57;2.50;;;;;;;16.00;94.15;100363.28;4848839;29;20072;-83
2021/08/08 19:54:33;;;;;;;8.68;2.80;;;;;;;16.23;94.56;100400.31;4850184;29;20023;-81
2021/08/08 19:56:59;;;;;;;10.52;2.88;;;;;;;15.92;94.75;100367.19;4849751;29;20438;-80
2021/08/08 19:59:25;;;;;;;7.63;2.55;;;;;;;16.38;94.97;100426.88;4834522;29;20121;-78
2021/08/08 20:01:50;;;;;;;9.18;2.70;;;;;;;16.67;95.00;100481.94;4842717;29;20120;-79
2021/08/08 20:04:16;;;;;;;7.65;2.70;;;;;;;16.64;95.35;100488.69;4846449;29;20533;-79
2021/08/08 20:06:41;;;;;;;8.30;2.58;;;;;;;16.56;95.40;100483.69;4841690;29;20030;-80
2021/08/08 20:09:07;;;;;;;8.13;2.40;;;;;;;16.58;95.73;100492.38;4835710;29;20030;-80
2021/08/08 20:11:34;;;;;;;10.45;3.17;;;;;;;16.52;96.14;100489.81;4833027;29;20038;-79
2021/08/08 20:14:00;;;;;;;8.38;2.83;;;;;;;16.51;96.38;100505.31;4844265;29;20057;-80
2021/08/08 20:16:29;;;;;;;13.93;3.45;;;;;;;16.51;96.55;100504.50;4840999;29;20055;-82
2021/08/08 20:18:54;;;;;;;9.23;3.10;;;;;;;16.49;96.76;100520.19;4867531;29;20078;-82
2021/08/08 20:21:20;;;;;;;8.07;2.90;;;;;;;16.45;96.88;100519.88;4850099;29;20042;-80
2021/08/08 20:23:45;;;;;;;11.68;3.28;;;;;;;16.46;97.07;100518.81;4844787;29;20098;-81
2021/08/08 20:26:11;;;;;;;11.82;3.58;;;;;;;16.44;97.09;100516.31;4843563;29;20046;-81
2021/08/08 20:28:36;;;;;;;10.60;3.65;;;;;;;16.36;97.14;100516.75;4834744;29;20038;-80
2021/08/08 20:31:03;;;;;;;9.68;3.33;;;;;;;16.35;97.54;100525.13;4840403;29;20022;-81
2021/08/08 20:33:29;;;;;;;8.93;2.90;;;;;;;16.34;97.37;100520.75;4840775;29;20030;-81
2021/08/08 20:35:54;;;;;;;6.32;2.47;;;;;;;16.23;97.55;100511.63;4839295;29;20064;-79
2021/08/08 20:38:19;;;;;;;5.93;2.20;;;;;;;16.23;97.34;100524.38;4840649;29;20049;-80
2021/08/08 20:40:45;;;;;;;7.68;2.30;;;;;;;16.17;97.28;100526.16;4810686;29;20050;-81
2021/08/08 20:43:12;;;;;;;7.47;2.72;;;;;;;16.03;97.26;100512.06;4848887;29;20076;-81
2021/08/08 20:45:37;;;;;;;5.75;2.00;;;;;;;16.03;97.42;100527.53;4841296;29;20122;-82
2021/08/08 20:48:03;;;;;;;7.28;2.08;;;;;;;16.10;97.54;100531.72;4837604;29;20053;-80
2021/08/08 20:50:29;;;;;;;7.20;2.33;;;;;;;16.09;97.49;100526.53;4810161;29;20103;-79
2021/08/08 20:52:56;;;;;;;7.47;2.20;;;;;;;16.11;97.84;100536.09;4834771;29;20030;-80
2021/08/08 20:55:23;;;;;;;6.75;2.30;;;;;;;16.12;97.89;100536.91;4812694;29;20030;-78
2021/08/08 20:57:49;;;;;;;9.95;2.50;;;;;;;16.15;98.11;100536.41;4818709;29;20042;-78
2021/08/08 21:00:15;;;;;;;5.82;2.33;;;;;;;16.18;97.89;100547.63;4830372;29;20034;-78
2021/08/08 21:02:43;;;;;;;6.32;2.47;;;;;;;16.19;98.39;100543.84;4832260;29;20042;-80
2021/08/08 21:05:09;;;;;;;8.10;2.58;;;;;;;16.19;98.26;100546.56;4829015;29;20357;-79
2021/08/08 21:07:35;;;;;;;8.68;2.40;;;;;;;15.97;98.37;100513.84;4826089;29;20099;-78
2021/08/08 21:10:01;;;;;;;9.57;2.80;;;;;;;16.14;98.65;100540.22;4827134;29;20035;-79
2021/08/08 21:12:27;;;;;;;7.40;2.60;;;;;;;16.25;98.70;100557.50;4828455;29;20078;-79
2021/08/08 21:14:52;;;;;;;8.50;2.60;;;;;;;16.23;98.78;100552.34;4825049;29;20026;-79
2021/08/08 21:17:18;;;;;;;7.28;2.78;;;;;;;16.24;98.83;100562.13;4833257;29;20037;-79
2021/08/08 21:19:44;;;;;;;8.10;3.20;;;;;;;16.28;98.86;100563.28;4831524;29;20049;-79
2021/08/08 21:22:10;;;;;;;8.90;2.95;;;;;;;16.28;98.92;100562.47;4828581;29;20364;-79
2021/08/08 21:24:36;;;;;;;8.98;2.90;;;;;;;16.31;99.53;100568.22;4828445;29;20034;-79
2021/08/08 21:27:01;;;;;;;8.50;2.85;;;;;;;16.31;99.38;100575.56;4824157;29;20097;-78
2021/08/08 21:29:28;;;;;;;8.68;2.80;;;;;;;16.30;99.22;100577.44;4814688;29;20034;-79
2021/08/08 21:31:53;;;;;;;7.10;2.85;;;;;;;16.31;99.42;100573.66;4820680;29;20057;-79
2021/08/08 21:34:20;;;;;;;8.35;2.88;;;;;;;16.33;99.10;100581.56;4821413;29;20058;-79
2021/08/08 21:36:46;;;;;;;11.75;3.00;;;;;;;16.35;99.18;100576.72;4821749;29;20040;-79
2021/08/08 21:39:11;;;;;;;9.20;2.92;;;;;;;16.28;99.21;100565.16;4816999;29;20041;-79
2021/08/08 21:41:38;;;;;;;9.13;3.30;;;;;;;16.39;99.54;100578.72;4833893;29;20030;-79
2021/08/08 21:44:04;;;;;;;8.82;3.30;;;;;;;16.41;99.19;100579.28;4829282;29;20022;-79
2021/08/08 21:46:30;;;;;;;8.77;3.58;;;;;;;16.43;98.83;100581.75;4830395;29;20045;-80
2021/08/08 21:48:56;;;;;;;12.65;3.45;;;;;;;16.48;98.83;100583.75;4849707;29;20037;-79
2021/08/08 21:51:21;;;;;;;7.97;3.00;;;;;;;16.47;98.55;100582.09;4849025;29;20261;-79
2021/08/08 21:53:46;;;;;;;11.52;3.40;;;;;;;16.52;98.59;100591.16;4830491;29;20225;-79
2021/08/08 21:56:12;;;;;;;10.20;3.60;;;;;;;16.44;98.32;100575.25;4830284;29;20461;-79
2021/08/08 21:58:37;;;;;;;8.63;3.42;;;;;;;16.58;98.50;100592.06;4829858;29;20034;-79
2021/08/08 22:01:02;;;;;;;8.32;3.17;;;;;;;16.50;98.43;100577.00;4828651;29;20038;-79
2021/08/08 22:03:28;;;;;;;9.32;3.70;;;;;;;16.60;98.62;100603.53;4831364;29;20030;-79
2021/08/08 22:05:53;;;;;;;10.10;3.17;;;;;;;16.61;98.55;100610.59;4827865;29;20039;-79
2021/08/08 22:08:19;;;;;;;11.00;3.50;;;;;;;16.61;98.85;100613.31;4800285;29;20060;-79
2021/08/08 22:10:44;;;;;;;7.60;3.10;;;;;;;16.59;98.66;100607.31;4829961;29;20133;-79
2021/08/08 22:13:10;;;;;;;8.07;3.30;;;;;;;16.52;98.61;100598.47;4829834;29;20129;-79
2021/08/08 22:15:35;;;;;;;6.68;3.22;;;;;;;16.56;98.97;100611.34;4830618;29;20075;-79
2021/08/08 22:18:01;;;;;;;7.32;3.20;;;;;;;16.59;98.85;100610.03;4829073;29;20472;-79
2021/08/08 22:20:26;;;;;;;5.63;2.95;;;;;;;16.49;98.69;100601.66;4831235;29;20103;-79
2021/08/08 22:22:52;;;;;;;7.50;3.10;;;;;;;16.59;98.86;100623.63;4827274;29;20053;-79
2021/08/08 22:25:19;;;;;;;8.40;3.00;;;;;;;16.62;98.89;100623.09;4829279;29;20446;-79
2021/08/08 22:27:44;;;;;;;7.45;3.15;;;;;;;16.58;98.79;100622.78;4830045;29;20031;-80
2021/08/08 22:30:11;;;;;;;8.75;3.60;;;;;;;16.58;98.75;100622.78;4825319;29;20484;-79
2021/08/08 22:32:37;;;;;;;9.93;3.50;;;;;;;16.59;98.89;100624.44;4848706;29;20037;-79
2021/08/08 22:35:03;;;;;;;11.48;3.90;;;;;;;16.57;98.70;100621.13;4820571;29;20026;-79
2021/08/08 22:37:29;;;;;;;9.60;3.78;;;;;;;16.64;98.50;100634.56;4830054;29;20034;-79
2021/08/08 22:39:54;;;;;;;10.05;3.50;;;;;;;16.64;98.39;100629.94;4814985;29;20034;-79
2021/08/08 22:42:21;;;;;;;8.98;3.80;;;;;;;16.64;97.73;100631.84;4814519;29;20046;-79
2021/08/08 22:44:48;;;;;;;12.88;4.03;;;;;;;16.65;97.61;100628.91;4831211;29;20054;-79
2021/08/08 22:47:13;;;;;;;8.50;3.85;;;;;;;16.65;97.66;100628.91;4826221;29;20087;-79
2021/08/08 22:49:39;;;;;;;11.40;3.83;;;;;;;16.65;97.68;100628.06;4830236;29;20058;-79
2021/08/08 22:52:04;;;;;;;9.95;4.00;;;;;;;16.68;97.33;100631.09;4814134;29;20042;-79
2021/08/08 22:54:30;;;;;;;13.43;4.22;;;;;;;16.71;97.35;100637.13;4814553;29;20038;-80
2021/08/08 22:56:56;;;;;;;9.50;3.63;;;;;;;16.73;97.12;100632.28;4828385;29;20479;-79
2021/08/08 22:59:21;;;;;;;10.70;4.15;;;;;;;16.73;97.22;100637.72;4831248;29;20060;-79
2021/08/08 23:01:48;;;;;;;13.98;4.25;;;;;;;16.75;97.31;100630.16;4828259;29;20419;-79
2021/08/08 23:04:14;;;;;;;10.43;4.38;;;;;;;16.75;97.57;100633.69;4828928;29;20384;-79
2021/08/08 23:06:40;;;;;;;11.45;4.20;;;;;;;16.73;97.66;100630.38;4824398;29;20030;-79
2021/08/08 23:09:05;;;;;;;14.75;4.57;;;;;;;16.72;97.86;100626.03;4826594;29;20034;-79
2021/08/08 23:11:31;;;;;;;13.40;4.57;;;;;;;16.67;97.81;100621.31;4828892;29;20536;-79
2021/08/08 23:13:56;;;;;;;12.25;5.05;;;;;;;16.70;97.60;100630.06;4831189;29;20054;-79
2021/08/08 23:16:21;;;;;;;8.50;4.20;;;;;;;16.74;97.95;100632.03;4804127;29;20139;-79
2021/08/08 23:18:47;;;;;;;16.83;4.40;;;;;;;16.74;97.54;100636.66;4829435;29;20044;-79
2021/08/08 23:21:12;;;;;;;10.70;4.75;;;;;;;16.68;97.39;100631.09;4828239;29;20133;-79
2021/08/08 23:23:38;;;;;;;9.70;4.50;;;;;;;16.71;97.30;100648.00;4827490;29;20069;-79
2021/08/08 23:26:03;;;;;;;11.02;4.18;;;;;;;16.72;97.12;100642.34;4797715;29;20436;-79
2021/08/08 23:28:29;;;;;;;19.45;4.68;;;;;;;16.56;97.22;100621.38;4827717;29;20073;-79
2021/08/08 23:30:54;;;;;;;13.23;4.68;;;;;;;16.67;97.14;100651.19;4830001;29;20057;-79
2021/08/08 23:33:19;;;;;;;10.93;4.43;;;;;;;16.66;97.07;100652.28;4798034;29;20461;-79
2021/08/08 23:35:45;;;;;;;13.55;4.60;;;;;;;16.61;96.93;100646.72;4798585;29;20054;-79
2021/08/08 23:38:10;;;;;;;12.60;4.22;;;;;;;16.61;96.67;100649.44;4797089;29;20039;-79
2021/08/08 23:40:36;;;;;;;11.45;4.13;;;;;;;16.62;96.91;100653.00;4815502;29;20462;-79
2021/08/08 23:43:01;;;;;;;16.60;4.78;;;;;;;16.56;96.70;100651.25;4828606;29;20152;-79
2021/08/08 23:45:27;;;;;;;14.90;4.50;;;;;;;16.63;96.24;100666.34;4842195;29;20034;-79
2021/08/08 23:47:52;;;;;;;15.07;4.40;;;;;;;16.63;96.14;100658.19;4832750;29;20099;-79
2021/08/08 23:50:18;;;;;;;14.60;4.30;;;;;;;16.65;96.05;100666.09;4828341;29;20065;-79
2021/08/08 23:52:45;;;;;;;18.02;4.50;;;;;;;16.63;95.89;100657.38;4826676;29;20038;-79
2021/08/08 23:55:10;;;;;;;11.63;4.13;;;;;;;16.56;95.83;100643.94;4812612;29;20042;-79
2021/08/08 23:57:36;;;;;;;13.55;4.43;;;;;;;16.57;95.68;100647.47;4825951;29;20034;-79
